aviador You're here:

MHCA Decoded Metar

CATACAMAS in HONDURAS
Report Time2018-01-17 06:00:00
UTC Time2018-01-17 06:44:43
Flight Rules vfr VFR
Wind090° at 03 kt
W.Rank090° ranks 1
Current wind is below 090° avg. (4.0)
Visibility9999 m
Phenomena:N/A
Clouds:Scattered 028 Hf
Expected CloudBase > 800 ft AGL from Temp-Dew spread
CeilingNone
Temp21°C (ISA +9)
Dew Point19°C (88% RH)
QNH1020 hPa
Density Alt2,546 ft
Elevation1,450 ft
Report Wrong Elevation
Raw Report
MHCA 170600Z 09003KT 9999 SCT028 21/19 Q1020 HZ=

Extra information for MHCA:More info

Metar Taf Metar & Taf Last 4 Metars F.Rules Stats Wind Profile Meteogram Temp Stats Airport Information Weather charts Add Link Nearby VenuesMetar ALERT Operation Metar Decoded Social comments